sensor_id;sensor_type;location;lat;lon;timestamp;pressure;altitude;pressure_sealevel;temperature;humidity
11621;BME280;5866;49.094;11.900;2024-01-11T00:00:37;97192.00;;;-5.22;100.00
11621;BME280;5866;49.094;11.900;2024-01-11T00:03:05;97184.00;;;-5.15;100.00
11621;BME280;5866;49.094;11.900;2024-01-11T00:05:32;97188.00;;;-5.03;100.00
11621;BME280;5866;49.094;11.900;2024-01-11T00:08:02;97188.38;;;-4.60;100.00
11621;BME280;5866;49.094;11.900;2024-01-11T00:10:30;97178.59;;;-4.50;100.00
11621;BME280;5866;49.094;11.900;2024-01-11T00:12:57;97178.44;;;-4.46;100.00
11621;BME280;5866;49.094;11.900;2024-01-11T00:15:25;97178.69;;;-4.53;100.00
11621;BME280;5866;49.094;11.900;2024-01-11T00:17:52;97172.38;;;-4.45;100.00
11621;BME280;5866;49.094;11.900;2024-01-11T00:20:20;97177.25;;;-4.36;100.00
11621;BME280;5866;49.094;11.900;2024-01-11T00:22:48;97172.75;;;-4.57;100.00
11621;BME280;5866;49.094;11.900;2024-01-11T00:25:17;97163.72;;;-3.68;100.00
11621;BME280;5866;49.094;11.900;2024-01-11T00:27:45;97169.13;;;-3.74;100.00
11621;BME280;5866;49.094;11.900;2024-01-11T00:30:12;97177.66;;;-4.22;100.00
11621;BME280;5866;49.094;11.900;2024-01-11T00:32:40;97176.88;;;-4.24;100.00
11621;BME280;5866;49.094;11.900;2024-01-11T00:35:08;97173.91;;;-4.67;100.00
11621;BME280;5866;49.094;11.900;2024-01-11T00:37:36;97184.78;;;-4.56;100.00
11621;BME280;5866;49.094;11.900;2024-01-11T00:40:04;97178.50;;;-4.75;100.00
11621;BME280;5866;49.094;11.900;2024-01-11T00:42:33;97178.41;;;-4.44;100.00
11621;BME280;5866;49.094;11.900;2024-01-11T00:45:02;97179.88;;;-4.63;100.00
11621;BME280;5866;49.094;11.900;2024-01-11T00:47:29;97189.41;;;-4.93;100.00
11621;BME280;5866;49.094;11.900;2024-01-11T00:49:57;97186.75;;;-4.92;100.00
11621;BME280;5866;49.094;11.900;2024-01-11T00:52:25;97186.50;;;-5.42;100.00
11621;BME280;5866;49.094;11.900;2024-01-11T00:54:53;97183.78;;;-5.36;100.00
11621;BME280;5866;49.094;11.900;2024-01-11T00:57:20;97185.78;;;-5.17;100.00
11621;BME280;5866;49.094;11.900;2024-01-11T00:59:49;97188.00;;;-5.65;100.00
11621;BME280;5866;49.094;11.900;2024-01-11T01:02:19;97191.09;;;-5.83;100.00
11621;BME280;5866;49.094;11.900;2024-01-11T01:04:47;97179.00;;;-5.82;100.00
11621;BME280;5866;49.094;11.900;2024-01-11T01:07:15;97176.72;;;-5.93;100.00
11621;BME280;5866;49.094;11.900;2024-01-11T01:09:42;97181.75;;;-5.87;100.00
11621;BME280;5866;49.094;11.900;2024-01-11T01:12:10;97185.59;;;-5.71;100.00
11621;BME280;5866;49.094;11.900;2024-01-11T01:14:37;97184.97;;;-5.80;100.00
11621;BME280;5866;49.094;11.900;2024-01-11T01:17:06;97178.06;;;-5.80;100.00
11621;BME280;5866;49.094;11.900;2024-01-11T01:19:34;97188.69;;;-5.89;100.00
11621;BME280;5866;49.094;11.900;2024-01-11T01:22:03;97183.94;;;-5.73;100.00
11621;BME280;5866;49.094;11.900;2024-01-11T01:24:31;97185.91;;;-5.83;100.00
11621;BME280;5866;49.094;11.900;2024-01-11T01:26:58;97186.63;;;-6.08;100.00
11621;BME280;5866;49.094;11.900;2024-01-11T01:29:26;97179.56;;;-6.02;100.00
11621;BME280;5866;49.094;11.900;2024-01-11T01:31:54;97176.66;;;-5.90;100.00
11621;BME280;5866;49.094;11.900;2024-01-11T01:34:23;97181.16;;;-5.66;100.00
11621;BME280;5866;49.094;11.900;2024-01-11T01:36:51;97177.41;;;-5.86;100.00
11621;BME280;5866;49.094;11.900;2024-01-11T01:39:19;97182.38;;;-5.80;100.00
11621;BME280;5866;49.094;11.900;2024-01-11T01:41:46;97180.44;;;-6.03;100.00
11621;BME280;5866;49.094;11.900;2024-01-11T01:44:14;97178.94;;;-5.79;100.00
11621;BME280;5866;49.094;11.900;2024-01-11T01:46:42;97177.03;;;-5.73;100.00
11621;BME280;5866;49.094;11.900;2024-01-11T01:49:10;97178.97;;;-5.81;100.00
11621;BME280;5866;49.094;11.900;2024-01-11T01:51:40;97184.03;;;-5.78;100.00
11621;BME280;5866;49.094;11.900;2024-01-11T01:54:08;97185.25;;;-5.89;100.00
11621;BME280;5866;49.094;11.900;2024-01-11T01:56:36;97193.81;;;-5.56;100.00
11621;BME280;5866;49.094;11.900;2024-01-11T01:59:04;97191.19;;;-5.86;100.00
11621;BME280;5866;49.094;11.900;2024-01-11T02:01:32;97186.41;;;-5.69;100.00
11621;BME280;5866;49.094;11.900;2024-01-11T02:04:00;97190.22;;;-5.83;100.00
11621;BME280;5866;49.094;11.900;2024-01-11T02:06:29;97187.66;;;-5.52;100.00
11621;BME280;5866;49.094;11.900;2024-01-11T02:09:02;97185.50;;;-5.37;100.00
11621;BME280;5866;49.094;11.900;2024-01-11T02:11:30;97186.22;;;-4.73;100.00
11621;BME280;5866;49.094;11.900;2024-01-11T02:13:58;97187.31;;;-4.53;100.00
11621;BME280;5866;49.094;11.900;2024-01-11T02:16:26;97186.59;;;-4.58;100.00
11621;BME280;5866;49.094;11.900;2024-01-11T02:18:53;97183.31;;;-5.21;100.00
11621;BME280;5866;49.094;11.900;2024-01-11T02:21:22;97180.72;;;-5.50;100.00
11621;BME280;5866;49.094;11.900;2024-01-11T02:24:01;97176.81;;;-5.65;100.00
11621;BME280;5866;49.094;11.900;2024-01-11T02:26:29;97180.53;;;-5.75;100.00
11621;BME280;5866;49.094;11.900;2024-01-11T02:28:56;97175.84;;;-5.61;100.00
11621;BME280;5866;49.094;11.900;2024-01-11T02:31:24;97173.88;;;-5.51;100.00
11621;BME280;5866;49.094;11.900;2024-01-11T02:33:52;97173.75;;;-5.48;100.00
11621;BME280;5866;49.094;11.900;2024-01-11T02:36:21;97166.66;;;-5.40;100.00
11621;BME280;5866;49.094;11.900;2024-01-11T02:38:48;97165.84;;;-5.73;100.00
11621;BME280;5866;49.094;11.900;2024-01-11T02:41:20;97172.91;;;-5.18;100.00
11621;BME280;5866;49.094;11.900;2024-01-11T02:43:48;97168.06;;;-5.59;100.00
11621;BME280;5866;49.094;11.900;2024-01-11T02:46:16;97168.34;;;-5.70;100.00
11621;BME280;5866;49.094;11.900;2024-01-11T02:48:44;97167.94;;;-5.86;100.00
11621;BME280;5866;49.094;11.900;2024-01-11T02:51:12;97167.84;;;-6.15;100.00
11621;BME280;5866;49.094;11.900;2024-01-11T02:53:40;97159.75;;;-6.01;100.00
11621;BME280;5866;49.094;11.900;2024-01-11T02:56:07;97156.22;;;-5.99;100.00
11621;BME280;5866;49.094;11.900;2024-01-11T02:58:36;97156.16;;;-5.96;100.00
11621;BME280;5866;49.094;11.900;2024-01-11T03:01:04;97150.78;;;-5.57;100.00
11621;BME280;5866;49.094;11.900;2024-01-11T03:03:31;97153.94;;;-4.62;100.00
11621;BME280;5866;49.094;11.900;2024-01-11T03:05:59;97147.91;;;-4.10;100.00
11621;BME280;5866;49.094;11.900;2024-01-11T03:08:27;97135.94;;;-3.88;100.00
11621;BME280;5866;49.094;11.900;2024-01-11T03:10:54;97139.75;;;-3.99;100.00
11621;BME280;5866;49.094;11.900;2024-01-11T03:13:23;97153.75;;;-4.30;100.00
11621;BME280;5866;49.094;11.900;2024-01-11T03:15:51;97154.41;;;-4.23;100.00
11621;BME280;5866;49.094;11.900;2024-01-11T03:18:19;97140.91;;;-4.08;100.00
11621;BME280;5866;49.094;11.900;2024-01-11T03:20:47;97141.25;;;-3.92;100.00
11621;BME280;5866;49.094;11.900;2024-01-11T03:23:14;97143.31;;;-4.02;100.00
11621;BME280;5866;49.094;11.900;2024-01-11T03:25:42;97138.97;;;-4.02;100.00
11621;BME280;5866;49.094;11.900;2024-01-11T03:28:10;97140.59;;;-4.24;100.00
11621;BME280;5866;49.094;11.900;2024-01-11T03:30:37;97129.47;;;-4.27;100.00
11621;BME280;5866;49.094;11.900;2024-01-11T03:33:06;97136.88;;;-4.69;100.00
11621;BME280;5866;49.094;11.900;2024-01-11T03:35:34;97134.53;;;-4.49;100.00
11621;BME280;5866;49.094;11.900;2024-01-11T03:38:05;97144.25;;;-4.83;100.00
11621;BME280;5866;49.094;11.900;2024-01-11T03:40:33;97139.22;;;-5.15;100.00
11621;BME280;5866;49.094;11.900;2024-01-11T03:43:00;97129.09;;;-5.23;100.00
11621;BME280;5866;49.094;11.900;2024-01-11T03:45:28;97132.25;;;-5.73;100.00
11621;BME280;5866;49.094;11.900;2024-01-11T03:47:55;97133.59;;;-5.29;100.00
11621;BME280;5866;49.094;11.900;2024-01-11T03:50:24;97136.97;;;-5.27;100.00
11621;BME280;5866;49.094;11.900;2024-01-11T03:52:52;97122.84;;;-5.45;100.00
11621;BME280;5866;49.094;11.900;2024-01-11T03:55:19;97127.72;;;-5.34;100.00
11621;BME280;5866;49.094;11.900;2024-01-11T03:57:47;97129.19;;;-5.56;100.00
11621;BME280;5866;49.094;11.900;2024-01-11T04:00:15;97127.41;;;-5.84;100.00
11621;BME280;5866;49.094;11.900;2024-01-11T04:02:43;97121.16;;;-5.77;100.00
11621;BME280;5866;49.094;11.900;2024-01-11T04:05:11;97120.88;;;-5.37;100.00
11621;BME280;5866;49.094;11.900;2024-01-11T04:07:40;97121.91;;;-5.42;100.00
11621;BME280;5866;49.094;11.900;2024-01-11T04:10:08;97133.31;;;-5.80;100.00
11621;BME280;5866;49.094;11.900;2024-01-11T04:12:36;97126.78;;;-5.92;100.00
11621;BME280;5866;49.094;11.900;2024-01-11T04:15:04;97127.47;;;-5.85;100.00
11621;BME280;5866;49.094;11.900;2024-01-11T04:17:32;97122.75;;;-6.02;100.00
11621;BME280;5866;49.094;11.900;2024-01-11T04:20:00;97126.72;;;-5.89;100.00
11621;BME280;5866;49.094;11.900;2024-01-11T04:22:28;97125.91;;;-5.91;100.00
11621;BME280;5866;49.094;11.900;2024-01-11T04:24:57;97131.91;;;-5.30;100.00
11621;BME280;5866;49.094;11.900;2024-01-11T04:27:24;97133.06;;;-5.11;100.00
11621;BME280;5866;49.094;11.900;2024-01-11T04:29:52;97121.00;;;-5.12;100.00
11621;BME280;5866;49.094;11.900;2024-01-11T04:32:19;97123.53;;;-5.69;100.00
11621;BME280;5866;49.094;11.900;2024-01-11T04:34:47;97127.53;;;-5.88;100.00
11621;BME280;5866;49.094;11.900;2024-01-11T04:37:15;97119.66;;;-5.54;100.00
11621;BME280;5866;49.094;11.900;2024-01-11T04:39:42;97116.22;;;-5.84;100.00
11621;BME280;5866;49.094;11.900;2024-01-11T04:42:11;97129.09;;;-5.83;100.00
11621;BME280;5866;49.094;11.900;2024-01-11T04:44:39;97133.31;;;-5.20;100.00
11621;BME280;5866;49.094;11.900;2024-01-11T04:47:06;97140.06;;;-6.05;100.00
11621;BME280;5866;49.094;11.900;2024-01-11T04:49:34;97157.09;;;-6.32;100.00
11621;BME280;5866;49.094;11.900;2024-01-11T04:52:02;97148.75;;;-6.08;100.00
11621;BME280;5866;49.094;11.900;2024-01-11T04:54:30;97149.16;;;-5.91;100.00
11621;BME280;5866;49.094;11.900;2024-01-11T04:56:57;97151.88;;;-6.29;100.00
11621;BME280;5866;49.094;11.900;2024-01-11T04:59:26;97149.72;;;-6.12;100.00
11621;BME280;5866;49.094;11.900;2024-01-11T05:01:54;97144.63;;;-5.53;100.00
11621;BME280;5866;49.094;11.900;2024-01-11T05:04:22;97145.25;;;-5.16;100.00
11621;BME280;5866;49.094;11.900;2024-01-11T05:06:51;97153.56;;;-5.05;100.00
11621;BME280;5866;49.094;11.900;2024-01-11T05:09:18;97164.66;;;-5.91;100.00
11621;BME280;5866;49.094;11.900;2024-01-11T05:11:46;97169.66;;;-6.52;100.00
11621;BME280;5866;49.094;11.900;2024-01-11T05:14:13;97171.06;;;-6.40;100.00
11621;BME280;5866;49.094;11.900;2024-01-11T05:16:42;97173.13;;;-6.19;100.00
11621;BME280;5866;49.094;11.900;2024-01-11T05:19:11;97168.75;;;-6.51;100.00
11621;BME280;5866;49.094;11.900;2024-01-11T05:21:38;97177.06;;;-6.75;100.00
11621;BME280;5866;49.094;11.900;2024-01-11T05:24:06;97173.41;;;-6.65;100.00
11621;BME280;5866;49.094;11.900;2024-01-11T05:26:37;97181.31;;;-6.73;100.00
11621;BME280;5866;49.094;11.900;2024-01-11T05:29:05;97177.13;;;-6.78;100.00
11621;BME280;5866;49.094;11.900;2024-01-11T05:31:32;97170.03;;;-6.33;100.00
11621;BME280;5866;49.094;11.900;2024-01-11T05:34:02;97169.44;;;-6.43;100.00
11621;BME280;5866;49.094;11.900;2024-01-11T05:36:29;97166.91;;;-6.46;100.00
11621;BME280;5866;49.094;11.900;2024-01-11T05:38:57;97168.50;;;-6.07;100.00
11621;BME280;5866;49.094;11.900;2024-01-11T05:41:24;97159.84;;;-6.04;100.00
11621;BME280;5866;49.094;11.900;2024-01-11T05:43:52;97163.94;;;-5.67;100.00
11621;BME280;5866;49.094;11.900;2024-01-11T05:46:21;97166.41;;;-5.62;100.00
11621;BME280;5866;49.094;11.900;2024-01-11T05:48:49;97163.25;;;-5.12;100.00
11621;BME280;5866;49.094;11.900;2024-01-11T05:51:18;97159.53;;;-5.32;100.00
11621;BME280;5866;49.094;11.900;2024-01-11T05:53:45;97162.69;;;-5.83;100.00
11621;BME280;5866;49.094;11.900;2024-01-11T05:56:13;97172.50;;;-5.65;100.00
11621;BME280;5866;49.094;11.900;2024-01-11T05:58:41;97175.72;;;-5.56;100.00
11621;BME280;5866;49.094;11.900;2024-01-11T06:01:08;97170.63;;;-5.29;100.00
11621;BME280;5866;49.094;11.900;2024-01-11T06:03:36;97166.72;;;-4.85;100.00
11621;BME280;5866;49.094;11.900;2024-01-11T06:06:05;97170.69;;;-5.03;100.00
11621;BME280;5866;49.094;11.900;2024-01-11T06:08:34;97164.53;;;-5.26;100.00
11621;BME280;5866;49.094;11.900;2024-01-11T06:11:03;97172.44;;;-5.61;100.00
11621;BME280;5866;49.094;11.900;2024-01-11T06:13:31;97166.81;;;-5.17;100.00
11621;BME280;5866;49.094;11.900;2024-01-11T06:15:59;97167.81;;;-5.21;100.00
11621;BME280;5866;49.094;11.900;2024-01-11T06:18:26;97165.50;;;-5.30;100.00
11621;BME280;5866;49.094;11.900;2024-01-11T06:20:54;97173.63;;;-4.84;100.00
11621;BME280;5866;49.094;11.900;2024-01-11T06:23:24;97165.34;;;-4.67;100.00
11621;BME280;5866;49.094;11.900;2024-01-11T06:25:53;97162.97;;;-4.75;100.00
11621;BME280;5866;49.094;11.900;2024-01-11T06:28:21;97161.56;;;-4.57;100.00
11621;BME280;5866;49.094;11.900;2024-01-11T06:30:48;97154.13;;;-4.68;100.00
11621;BME280;5866;49.094;11.900;2024-01-11T06:33:16;97156.94;;;-5.03;100.00
11621;BME280;5866;49.094;11.900;2024-01-11T06:35:44;97161.22;;;-5.02;100.00
11621;BME280;5866;49.094;11.900;2024-01-11T06:38:12;97168.97;;;-5.02;100.00
11621;BME280;5866;49.094;11.900;2024-01-11T06:40:39;97171.69;;;-5.07;100.00
11621;BME280;5866;49.094;11.900;2024-01-11T06:43:08;97179.94;;;-5.23;100.00
11621;BME280;5866;49.094;11.900;2024-01-11T06:45:36;97181.72;;;-5.25;100.00
11621;BME280;5866;49.094;11.900;2024-01-11T06:48:04;97191.50;;;-5.98;100.00
11621;BME280;5866;49.094;11.900;2024-01-11T06:50:32;97200.41;;;-6.43;100.00
11621;BME280;5866;49.094;11.900;2024-01-11T06:53:00;97197.75;;;-6.78;100.00
11621;BME280;5866;49.094;11.900;2024-01-11T06:55:29;97201.63;;;-6.97;100.00
11621;BME280;5866;49.094;11.900;2024-01-11T06:57:56;97208.88;;;-6.75;100.00
11621;BME280;5866;49.094;11.900;2024-01-11T07:00:26;97200.25;;;-6.37;100.00
11621;BME280;5866;49.094;11.900;2024-01-11T07:02:54;97193.38;;;-6.38;100.00
11621;BME280;5866;49.094;11.900;2024-01-11T07:05:22;97203.72;;;-6.04;100.00
11621;BME280;5866;49.094;11.900;2024-01-11T07:07:49;97216.25;;;-6.58;100.00
11621;BME280;5866;49.094;11.900;2024-01-11T07:10:17;97216.09;;;-6.52;100.00
11621;BME280;5866;49.094;11.900;2024-01-11T07:12:44;97208.84;;;-6.73;100.00
11621;BME280;5866;49.094;11.900;2024-01-11T07:15:14;97214.53;;;-6.59;100.00
11621;BME280;5866;49.094;11.900;2024-01-11T07:17:44;97218.41;;;-6.78;100.00
11621;BME280;5866;49.094;11.900;2024-01-11T07:20:12;97224.72;;;-6.91;100.00
11621;BME280;5866;49.094;11.900;2024-01-11T07:22:41;97229.00;;;-6.90;100.00
11621;BME280;5866;49.094;11.900;2024-01-11T07:25:09;97240.22;;;-6.93;100.00
11621;BME280;5866;49.094;11.900;2024-01-11T07:27:37;97237.59;;;-6.90;100.00
11621;BME280;5866;49.094;11.900;2024-01-11T07:30:06;97241.25;;;-7.01;100.00
11621;BME280;5866;49.094;11.900;2024-01-11T07:32:35;97247.72;;;-6.82;100.00
11621;BME280;5866;49.094;11.900;2024-01-11T07:35:05;97236.06;;;-6.62;100.00
11621;BME280;5866;49.094;11.900;2024-01-11T07:37:38;97235.94;;;-6.19;100.00
11621;BME280;5866;49.094;11.900;2024-01-11T07:40:07;97243.16;;;-6.33;100.00
11621;BME280;5866;49.094;11.900;2024-01-11T07:42:37;97242.13;;;-6.26;100.00
11621;BME280;5866;49.094;11.900;2024-01-11T07:45:06;97228.78;;;-5.76;100.00
11621;BME280;5866;49.094;11.900;2024-01-11T07:47:36;97232.75;;;-5.63;100.00
11621;BME280;5866;49.094;11.900;2024-01-11T07:50:06;97230.72;;;-4.62;100.00
11621;BME280;5866;49.094;11.900;2024-01-11T07:52:34;97231.56;;;-4.62;100.00
11621;BME280;5866;49.094;11.900;2024-01-11T07:55:01;97231.84;;;-4.71;100.00
11621;BME280;5866;49.094;11.900;2024-01-11T07:57:33;97231.53;;;-4.88;100.00
11621;BME280;5866;49.094;11.900;2024-01-11T08:00:03;97238.19;;;-5.10;100.00
11621;BME280;5866;49.094;11.900;2024-01-11T08:02:33;97225.63;;;-4.93;100.00
11621;BME280;5866;49.094;11.900;2024-01-11T08:05:01;97248.19;;;-5.29;100.00
11621;BME280;5866;49.094;11.900;2024-01-11T08:07:30;97246.50;;;-4.99;100.00
11621;BME280;5866;49.094;11.900;2024-01-11T08:09:57;97242.91;;;-4.66;100.00
11621;BME280;5866;49.094;11.900;2024-01-11T08:12:25;97250.47;;;-5.49;100.00
11621;BME280;5866;49.094;11.900;2024-01-11T08:14:53;97246.41;;;-5.59;100.00
11621;BME280;5866;49.094;11.900;2024-01-11T08:17:20;97248.63;;;-5.78;100.00
11621;BME280;5866;49.094;11.900;2024-01-11T08:19:48;97268.31;;;-5.72;100.00
11621;BME280;5866;49.094;11.900;2024-01-11T08:22:16;97276.25;;;-5.80;100.00
11621;BME280;5866;49.094;11.900;2024-01-11T08:24:45;97278.59;;;-5.71;100.00
11621;BME280;5866;49.094;11.900;2024-01-11T08:27:13;97285.53;;;-5.73;100.00
11621;BME280;5866;49.094;11.900;2024-01-11T08:29:43;97281.66;;;-5.56;100.00
11621;BME280;5866;49.094;11.900;2024-01-11T08:32:13;97290.81;;;-5.43;100.00
11621;BME280;5866;49.094;11.900;2024-01-11T08:34:56;97277.13;;;-4.86;100.00
11621;BME280;5866;49.094;11.900;2024-01-11T08:37:24;97281.81;;;-4.69;100.00
11621;BME280;5866;49.094;11.900;2024-01-11T08:39:53;97280.88;;;-4.66;100.00
11621;BME280;5866;49.094;11.900;2024-01-11T08:42:21;97281.28;;;-4.51;100.00
11621;BME280;5866;49.094;11.900;2024-01-11T08:44:48;97279.13;;;-4.37;100.00
11621;BME280;5866;49.094;11.900;2024-01-11T08:47:16;97276.97;;;-4.23;100.00
11621;BME280;5866;49.094;11.900;2024-01-11T08:49:43;97271.81;;;-3.70;100.00
11621;BME280;5866;49.094;11.900;2024-01-11T08:52:11;97255.34;;;-3.18;100.00
11621;BME280;5866;49.094;11.900;2024-01-11T08:54:39;97242.94;;;-3.35;100.00
11621;BME280;5866;49.094;11.900;2024-01-11T08:57:08;97236.66;;;-2.59;100.00
11621;BME280;5866;49.094;11.900;2024-01-11T08:59:35;97241.69;;;-2.54;100.00
11621;BME280;5866;49.094;11.900;2024-01-11T09:02:03;97238.22;;;-2.55;100.00
11621;BME280;5866;49.094;11.900;2024-01-11T09:04:41;97232.41;;;-1.75;100.00
11621;BME280;5866;49.094;11.900;2024-01-11T09:07:09;97235.94;;;-0.76;100.00
11621;BME280;5866;49.094;11.900;2024-01-11T09:09:37;97232.50;;;-1.36;100.00
11621;BME280;5866;49.094;11.900;2024-01-11T09:12:17;97225.19;;;-1.08;100.00
11621;BME280;5866;49.094;11.900;2024-01-11T09:14:45;97220.47;;;0.29;100.00
11621;BME280;5866;49.094;11.900;2024-01-11T09:17:12;97225.75;;;0.28;88.79
11621;BME280;5866;49.094;11.900;2024-01-11T09:19:40;97219.91;;;-0.49;86.59
11621;BME280;5866;49.094;11.900;2024-01-11T09:22:08;97215.69;;;0.20;88.07
11621;BME280;5866;49.094;11.900;2024-01-11T09:24:36;97214.59;;;0.07;85.37
11621;BME280;5866;49.094;11.900;2024-01-11T09:27:06;97215.53;;;0.06;85.96
11621;BME280;5866;49.094;11.900;2024-01-11T09:29:34;97211.88;;;0.27;80.03
11621;BME280;5866;49.094;11.900;2024-01-11T09:32:02;97210.78;;;0.14;78.70
11621;BME280;5866;49.094;11.900;2024-01-11T09:34:32;97188.63;;;1.07;78.18
11621;BME280;5866;49.094;11.900;2024-01-11T09:36:59;97172.59;;;2.94;77.72
11621;BME280;5866;49.094;11.900;2024-01-11T09:39:27;97164.97;;;4.27;71.19
11621;BME280;5866;49.094;11.900;2024-01-11T09:41:58;97165.09;;;5.03;63.52
11621;BME280;5866;49.094;11.900;2024-01-11T09:44:26;97170.50;;;5.50;59.88
11621;BME280;5866;49.094;11.900;2024-01-11T09:46:56;97186.72;;;5.31;57.62
11621;BME280;5866;49.094;11.900;2024-01-11T09:49:26;97199.56;;;3.66;55.38
11621;BME280;5866;49.094;11.900;2024-01-11T09:51:54;97210.41;;;3.60;57.55
11621;BME280;5866;49.094;11.900;2024-01-11T09:54:23;97195.09;;;3.95;57.98
11621;BME280;5866;49.094;11.900;2024-01-11T09:56:53;97173.72;;;4.40;57.39
11621;BME280;5866;49.094;11.900;2024-01-11T09:59:23;97159.13;;;5.49;56.25
11621;BME280;5866;49.094;11.900;2024-01-11T10:01:51;97175.06;;;5.23;52.23
11621;BME280;5866;49.094;11.900;2024-01-11T10:04:20;97178.31;;;2.72;56.08
11621;BME280;5866;49.094;11.900;2024-01-11T10:06:48;97192.47;;;2.24;59.99
11621;BME280;5866;49.094;11.900;2024-01-11T10:09:17;97202.13;;;3.11;58.69
11621;BME280;5866;49.094;11.900;2024-01-11T10:11:45;97204.53;;;1.50;61.25
11621;BME280;5866;49.094;11.900;2024-01-11T10:14:13;97211.13;;;2.18;61.51
11621;BME280;5866;49.094;11.900;2024-01-11T10:16:41;97206.03;;;1.70;62.49
11621;BME280;5866;49.094;11.900;2024-01-11T10:19:09;97210.59;;;1.67;64.34
11621;BME280;5866;49.094;11.900;2024-01-11T10:21:39;97216.31;;;2.04;61.92
11621;BME280;5866;49.094;11.900;2024-01-11T10:24:06;97222.06;;;1.16;65.42
11621;BME280;5866;49.094;11.900;2024-01-11T10:26:35;97221.41;;;1.28;66.51
11621;BME280;5866;49.094;11.900;2024-01-11T10:29:03;97217.75;;;1.32;66.93
11621;BME280;5866;49.094;11.900;2024-01-11T10:31:38;97213.09;;;1.21;68.57
11621;BME280;5866;49.094;11.900;2024-01-11T10:34:06;97203.66;;;0.52;69.53
11621;BME280;5866;49.094;11.900;2024-01-11T10:36:35;97214.16;;;0.16;73.54
11621;BME280;5866;49.094;11.900;2024-01-11T10:39:05;97201.22;;;-0.04;75.43
11621;BME280;5866;49.094;11.900;2024-01-11T10:41:40;97202.63;;;1.37;72.46
11621;BME280;5866;49.094;11.900;2024-01-11T10:44:14;97199.63;;;1.60;68.78
11621;BME280;5866;49.094;11.900;2024-01-11T10:46:45;97205.84;;;2.04;66.92
11621;BME280;5866;49.094;11.900;2024-01-11T10:49:17;97193.44;;;2.37;63.23
11621;BME280;5866;49.094;11.900;2024-01-11T10:51:52;97196.34;;;3.89;60.77
11621;BME280;5866;49.094;11.900;2024-01-11T10:54:21;97199.91;;;3.60;58.57
11621;BME280;5866;49.094;11.900;2024-01-11T10:56:50;97220.84;;;2.16;61.71
11621;BME280;5866;49.094;11.900;2024-01-11T10:59:20;97228.63;;;1.07;67.43
11621;BME280;5866;49.094;11.900;2024-01-11T11:01:52;97235.97;;;0.49;73.57
11621;BME280;5866;49.094;11.900;2024-01-11T11:04:22;97227.28;;;0.32;79.11
11621;BME280;5866;49.094;11.900;2024-01-11T11:06:50;97218.38;;;1.20;74.94
11621;BME280;5866;49.094;11.900;2024-01-11T11:09:18;97205.50;;;1.32;71.45
11621;BME280;5866;49.094;11.900;2024-01-11T11:11:49;97209.75;;;1.66;71.23
11621;BME280;5866;49.094;11.900;2024-01-11T11:14:16;97210.94;;;0.62;72.56
11621;BME280;5866;49.094;11.900;2024-01-11T11:16:45;97200.81;;;0.39;74.03
11621;BME280;5866;49.094;11.900;2024-01-11T11:19:14;97208.06;;;-0.02;77.11
11621;BME280;5866;49.094;11.900;2024-01-11T11:21:42;97207.22;;;-0.02;79.82
11621;BME280;5866;49.094;11.900;2024-01-11T11:24:11;97173.41;;;0.98;77.97
11621;BME280;5866;49.094;11.900;2024-01-11T11:26:38;97181.03;;;1.18;73.24
11621;BME280;5866;49.094;11.900;2024-01-11T11:29:08;97190.06;;;0.45;73.03
11621;BME280;5866;49.094;11.900;2024-01-11T11:31:36;97195.44;;;0.08;76.68
11621;BME280;5866;49.094;11.900;2024-01-11T11:34:04;97181.59;;;0.74;75.08
11621;BME280;5866;49.094;11.900;2024-01-11T11:36:33;97203.88;;;0.30;74.29
11621;BME280;5866;49.094;11.900;2024-01-11T11:39:02;97195.69;;;0.21;77.03
11621;BME280;5866;49.094;11.900;2024-01-11T11:41:30;97205.09;;;0.23;77.36
11621;BME280;5866;49.094;11.900;2024-01-11T11:44:01;97192.81;;;0.59;77.45
11621;BME280;5866;49.094;11.900;2024-01-11T11:46:32;97170.06;;;0.78;75.84
11621;BME280;5866;49.094;11.900;2024-01-11T11:49:00;97167.06;;;1.19;72.47
11621;BME280;5866;49.094;11.900;2024-01-11T11:51:27;97160.00;;;1.68;68.96
11621;BME280;5866;49.094;11.900;2024-01-11T11:53:57;97162.81;;;1.94;66.99
11621;BME280;5866;49.094;11.900;2024-01-11T11:56:25;97151.03;;;2.17;65.31
11621;BME280;5866;49.094;11.900;2024-01-11T11:58:52;97161.78;;;2.56;64.22
11621;BME280;5866;49.094;11.900;2024-01-11T12:01:21;97150.78;;;3.50;61.50
11621;BME280;5866;49.094;11.900;2024-01-11T12:03:52;97148.84;;;3.39;59.97
11621;BME280;5866;49.094;11.900;2024-01-11T12:06:21;97152.97;;;4.23;58.35
11621;BME280;5866;49.094;11.900;2024-01-11T12:08:52;97166.78;;;4.00;57.09
11621;BME280;5866;49.094;11.900;2024-01-11T12:11:23;97162.09;;;3.91;57.94
11621;BME280;5866;49.094;11.900;2024-01-11T12:13:52;97169.34;;;3.33;58.87
11621;BME280;5866;49.094;11.900;2024-01-11T12:16:20;97168.13;;;2.08;63.12
11621;BME280;5866;49.094;11.900;2024-01-11T12:18:51;97174.91;;;1.97;64.46
11621;BME280;5866;49.094;11.900;2024-01-11T12:21:20;97175.31;;;1.89;65.79
11621;BME280;5866;49.094;11.900;2024-01-11T12:23:47;97166.72;;;1.56;66.33
11621;BME280;5866;49.094;11.900;2024-01-11T12:26:16;97170.38;;;0.90;70.09
11621;BME280;5866;49.094;11.900;2024-01-11T12:28:49;97155.97;;;0.65;74.37
11621;BME280;5866;49.094;11.900;2024-01-11T12:31:16;97157.00;;;0.78;73.60
11621;BME280;5866;49.094;11.900;2024-01-11T12:33:45;97152.72;;;1.26;73.00
11621;BME280;5866;49.094;11.900;2024-01-11T12:36:15;97143.41;;;1.98;69.38
11621;BME280;5866;49.094;11.900;2024-01-11T12:38:46;97146.41;;;1.45;67.39
11621;BME280;5866;49.094;11.900;2024-01-11T12:41:19;97142.56;;;2.27;68.52
11621;BME280;5866;49.094;11.900;2024-01-11T12:43:48;97127.19;;;3.76;62.19
11621;BME280;5866;49.094;11.900;2024-01-11T12:46:16;97125.94;;;4.48;58.32
11621;BME280;5866;49.094;11.900;2024-01-11T12:48:44;97120.09;;;4.18;57.29
11621;BME280;5866;49.094;11.900;2024-01-11T12:51:12;97124.75;;;3.47;59.29
11621;BME280;5866;49.094;11.900;2024-01-11T12:53:48;97110.56;;;3.63;58.38
11621;BME280;5866;49.094;11.900;2024-01-11T12:56:17;97127.50;;;3.17;58.93
11621;BME280;5866;49.094;11.900;2024-01-11T12:58:45;97123.81;;;3.34;59.23
11621;BME280;5866;49.094;11.900;2024-01-11T13:01:13;97134.72;;;2.27;62.20